createdAt,value
2022-11-05T00:00:16.784Z,81.26
2022-11-05T00:03:03.383Z,81.30
2022-11-05T00:05:48.918Z,81.52
2022-11-05T00:08:35.759Z,81.44
2022-11-05T00:11:02.614Z,81.43
2022-11-05T00:13:50.646Z,81.56
2022-11-05T00:16:40.202Z,81.64
2022-11-05T00:19:07.435Z,81.64
2022-11-05T00:21:54.138Z,81.99
2022-11-05T00:24:42.209Z,81.93
2022-11-05T00:27:09.340Z,82.01
2022-11-05T00:29:36.006Z,81.81
2022-11-05T00:32:04.610Z,81.81
2022-11-05T00:34:31.359Z,81.96
2022-11-05T00:36:58.006Z,82.02
2022-11-05T00:39:26.328Z,81.91
2022-11-05T00:42:11.925Z,82.34
2022-11-05T00:44:57.396Z,82.33
2022-11-05T00:47:42.572Z,82.23
2022-11-05T00:50:10.846Z,82.37
2022-11-05T00:52:56.160Z,82.15
2022-11-05T00:55:26.470Z,82.47
2022-11-05T00:57:54.199Z,82.32
2022-11-05T01:00:23.265Z,82.33
2022-11-05T01:02:50.031Z,82.30
2022-11-05T01:05:17.249Z,82.45
2022-11-05T01:07:43.946Z,82.55
2022-11-05T01:10:10.693Z,82.72
2022-11-05T01:12:38.927Z,82.38
2022-11-05T01:15:06.984Z,82.72
2022-11-05T01:17:33.637Z,82.61
2022-11-05T01:20:00.301Z,82.59
2022-11-05T01:22:27.201Z,82.77
2022-11-05T01:24:53.847Z,82.51
2022-11-05T01:27:20.533Z,82.40
2022-11-05T01:29:48.632Z,82.73
2022-11-05T01:32:15.390Z,82.37
2022-11-05T01:34:42.415Z,82.22
2022-11-05T01:37:09.202Z,82.38
2022-11-05T01:39:36.165Z,82.08
2022-11-05T01:42:03.082Z,82.04
2022-11-05T01:44:53.185Z,81.98
2022-11-05T01:47:32.443Z,82.17
2022-11-05T01:50:02.619Z,82.10
2022-11-05T01:52:32.288Z,82.10
2022-11-05T01:54:59.525Z,81.92
2022-11-05T01:57:27.341Z,82.17
2022-11-05T01:59:58.935Z,82.17
2022-11-05T02:02:26.241Z,82.05
2022-11-05T02:04:57.752Z,82.09
2022-11-05T02:07:27.030Z,81.92
2022-11-05T02:09:59.132Z,81.91
2022-11-05T02:12:26.665Z,81.55
2022-11-05T02:14:54.362Z,81.83
2022-11-05T02:17:39.519Z,81.81
2022-11-05T02:20:18.741Z,81.88
2022-11-05T02:23:37.799Z,81.52
2022-11-05T02:26:24.343Z,81.62
2022-11-05T02:29:25.888Z,81.45
2022-11-05T02:32:04.417Z,81.45
2022-11-05T02:34:42.271Z,81.32
2022-11-05T02:37:17.740Z,81.33
2022-11-05T02:39:54.033Z,81.20
2022-11-05T02:42:30.373Z,81.32
2022-11-05T02:45:03.092Z,81.08
2022-11-05T02:47:40.522Z,81.16
2022-11-05T02:50:18.741Z,81.04
2022-11-05T02:52:52.861Z,81.12
2022-11-05T02:55:25.870Z,80.84
2022-11-05T02:57:53.283Z,81.10
2022-11-05T03:00:41.979Z,81.03
2022-11-05T03:03:37.103Z,81.10
2022-11-05T03:06:21.746Z,81.00
2022-11-05T03:09:10.284Z,80.76
2022-11-05T03:11:49.565Z,80.93
2022-11-05T03:14:23.794Z,80.89
2022-11-05T03:16:58.854Z,80.98
2022-11-05T03:19:35.553Z,81.17
2022-11-05T03:22:07.501Z,80.93
2022-11-05T03:24:38.273Z,81.02
2022-11-05T03:27:08.210Z,81.09
2022-11-05T03:29:41.225Z,81.26
2022-11-05T03:32:10.000Z,81.42
2022-11-05T03:34:42.452Z,81.49
2022-11-05T03:37:11.026Z,81.37
2022-11-05T03:39:40.940Z,81.52
2022-11-05T03:42:13.201Z,81.40
2022-11-05T03:44:46.196Z,81.30
2022-11-05T03:47:21.703Z,81.58
2022-11-05T03:49:56.123Z,81.48
2022-11-05T03:52:27.869Z,81.58
2022-11-05T03:54:54.803Z,81.86
2022-11-05T03:57:25.769Z,81.85
2022-11-05T03:59:56.125Z,81.89
2022-11-05T04:02:25.859Z,81.93
2022-11-05T04:04:56.726Z,81.94
2022-11-05T04:07:41.819Z,82.02
2022-11-05T04:10:28.591Z,81.91
2022-11-05T04:13:13.783Z,82.20
2022-11-05T04:15:59.165Z,81.90
2022-11-05T04:18:27.489Z,81.90
2022-11-05T04:21:14.578Z,81.83
2022-11-05T04:23:59.985Z,81.92
2022-11-05T04:26:27.041Z,82.02
2022-11-05T04:29:12.552Z,81.82
2022-11-05T04:31:39.706Z,81.78
2022-11-05T04:34:06.472Z,81.90
2022-11-05T04:36:34.719Z,82.04
2022-11-05T04:39:01.604Z,82.03
2022-11-05T04:41:28.252Z,81.88
2022-11-05T04:43:55.016Z,81.73
2022-11-05T04:46:21.577Z,81.77
2022-11-05T04:48:48.516Z,81.85
2022-11-05T04:51:15.408Z,81.73
2022-11-05T04:53:43.669Z,81.46
2022-11-05T04:56:11.542Z,81.66
2022-11-05T04:58:42.079Z,81.79
2022-11-05T05:01:12.907Z,81.83
2022-11-05T05:03:40.145Z,82.05
2022-11-05T05:06:07.224Z,81.69
2022-11-05T05:08:34.975Z,82.00
2022-11-05T05:11:04.529Z,81.82
2022-11-05T05:13:32.139Z,81.86
2022-11-05T05:15:59.088Z,81.88
2022-11-05T05:18:26.829Z,81.97
2022-11-05T05:21:15.816Z,82.14
2022-11-05T05:23:44.029Z,82.01
2022-11-05T05:26:12.244Z,81.84
2022-11-05T05:28:38.869Z,81.89
2022-11-05T05:31:06.037Z,82.01
2022-11-05T05:33:32.717Z,82.11
2022-11-05T05:36:00.281Z,81.96
2022-11-05T05:38:27.126Z,82.18
2022-11-05T05:40:58.387Z,82.19
2022-11-05T05:43:28.979Z,82.24
2022-11-05T05:45:57.299Z,82.37
2022-11-05T05:48:24.231Z,82.52
2022-11-05T05:50:52.490Z,82.15
2022-11-05T05:53:21.626Z,82.38
2022-11-05T05:55:48.578Z,82.32
2022-11-05T05:58:15.974Z,82.22
2022-11-05T06:00:43.941Z,82.56
2022-11-05T06:03:11.014Z,82.40
2022-11-05T06:05:39.472Z,82.49
2022-11-05T06:08:06.427Z,82.61
2022-11-05T06:10:33.208Z,82.54
2022-11-05T06:13:01.617Z,82.66
2022-11-05T06:15:33.168Z,82.33
2022-11-05T06:18:04.183Z,82.63
2022-11-05T06:20:30.750Z,82.74
2022-11-05T06:22:57.817Z,82.62
2022-11-05T06:25:25.620Z,82.62
2022-11-05T06:27:53.586Z,82.75
2022-11-05T06:30:21.736Z,82.82
2022-11-05T06:32:51.551Z,82.63
2022-11-05T06:35:19.540Z,82.75
2022-11-05T06:37:46.191Z,82.68
2022-11-05T06:40:13.115Z,82.61
2022-11-05T06:42:39.730Z,82.65
2022-11-05T06:45:07.868Z,82.59
2022-11-05T06:47:34.765Z,82.66
2022-11-05T06:50:01.437Z,82.63
2022-11-05T06:52:31.298Z,82.71
2022-11-05T06:54:58.196Z,82.55
2022-11-05T06:57:25.208Z,82.70
2022-11-05T06:59:57.120Z,82.71
2022-11-05T07:02:27.296Z,82.59
2022-11-05T07:04:54.063Z,82.80
2022-11-05T07:07:20.967Z,82.61
2022-11-05T07:09:52.208Z,82.79
2022-11-05T07:12:18.861Z,82.60
2022-11-05T07:14:45.804Z,82.83
2022-11-05T07:17:13.866Z,82.67
2022-11-05T07:19:40.524Z,82.58
2022-11-05T07:22:07.175Z,82.72
2022-11-05T07:24:34.097Z,82.74
2022-11-05T07:27:02.064Z,82.78
2022-11-05T07:29:28.736Z,82.85
2022-11-05T07:31:55.383Z,82.74
2022-11-05T07:34:22.233Z,82.70
2022-11-05T07:36:48.910Z,82.74
2022-11-05T07:39:15.553Z,83.13
2022-11-05T07:41:43.051Z,82.89
2022-11-05T07:44:11.749Z,82.91
2022-11-05T07:46:40.696Z,83.08
2022-11-05T07:49:07.223Z,82.97
2022-11-05T07:51:33.925Z,82.90
2022-11-05T07:54:00.763Z,82.96
2022-11-05T07:56:27.482Z,82.89
2022-11-05T07:58:54.606Z,82.94
2022-11-05T08:01:22.857Z,82.94
2022-11-05T08:03:49.807Z,83.00
2022-11-05T08:06:16.602Z,83.24
2022-11-05T08:08:43.308Z,83.15
2022-11-05T08:11:11.341Z,82.86
2022-11-05T08:13:38.654Z,83.06
2022-11-05T08:16:06.009Z,83.11
2022-11-05T08:18:35.956Z,83.03
2022-11-05T08:21:05.343Z,82.98
2022-11-05T08:23:32.899Z,83.23
2022-11-05T08:26:02.212Z,83.12
2022-11-05T08:28:28.860Z,83.15
2022-11-05T08:30:56.926Z,83.19
2022-11-05T08:33:25.743Z,83.15
2022-11-05T08:35:53.718Z,83.21
2022-11-05T08:38:22.075Z,83.35
2022-11-05T08:40:55.022Z,83.30
2022-11-05T08:43:24.790Z,83.02
2022-11-05T08:45:51.512Z,83.14
2022-11-05T08:48:19.288Z,83.14
2022-11-05T08:50:48.348Z,83.03
2022-11-05T08:53:16.988Z,83.34
2022-11-05T08:55:44.155Z,83.26
2022-11-05T08:58:15.000Z,83.20
2022-11-05T09:00:42.004Z,83.23
2022-11-05T09:03:09.736Z,83.61
2022-11-05T09:05:39.131Z,83.21
2022-11-05T09:08:08.394Z,83.08
2022-11-05T09:10:37.140Z,83.26
2022-11-05T09:13:04.587Z,83.40
2022-11-05T09:15:32.405Z,83.38
2022-11-05T09:18:01.836Z,83.51
2022-11-05T09:20:28.858Z,83.30
2022-11-05T09:22:55.454Z,83.22
2022-11-05T09:25:22.121Z,83.50
2022-11-05T09:27:51.658Z,83.53
2022-11-05T09:30:18.781Z,83.41
2022-11-05T09:32:45.577Z,83.38
2022-11-05T09:35:12.243Z,83.21
2022-11-05T09:37:39.004Z,83.55
2022-11-05T09:40:07.170Z,83.32
2022-11-05T09:42:39.592Z,83.16
2022-11-05T09:45:15.036Z,83.15
2022-11-05T09:47:46.912Z,83.01
2022-11-05T09:50:16.184Z,83.32
2022-11-05T09:52:43.036Z,82.89
2022-11-05T09:55:20.932Z,82.79
2022-11-05T09:57:54.085Z,82.96
2022-11-05T10:00:22.554Z,82.88
2022-11-05T10:02:53.672Z,82.76
2022-11-05T10:05:22.392Z,82.70
2022-11-05T10:07:51.394Z,82.96
2022-11-05T10:10:31.083Z,82.45
2022-11-05T10:13:02.173Z,82.59
2022-11-05T10:15:34.388Z,82.53
2022-11-05T10:18:10.175Z,82.26
2022-11-05T10:20:39.010Z,82.55
2022-11-05T10:23:09.941Z,82.13
2022-11-05T10:25:39.624Z,82.13
2022-11-05T10:28:07.900Z,81.78
2022-11-05T10:30:36.161Z,81.84
2022-11-05T10:33:05.651Z,81.80
2022-11-05T10:35:39.655Z,81.69
2022-11-05T10:38:06.795Z,81.61
2022-11-05T10:40:45.860Z,81.42
2022-11-05T10:43:17.739Z,81.36
2022-11-05T10:45:52.523Z,81.06
2022-11-05T10:48:37.033Z,80.90
2022-11-05T10:51:08.698Z,80.64
2022-11-05T10:53:38.567Z,80.48
2022-11-05T10:56:31.344Z,80.35
2022-11-05T10:59:00.543Z,80.09
2022-11-05T11:01:29.565Z,80.12
2022-11-05T11:04:08.530Z,80.06
2022-11-05T11:06:39.106Z,79.81
2022-11-05T11:09:18.518Z,79.76
2022-11-05T11:11:45.701Z,79.50
2022-11-05T11:14:22.344Z,79.33
2022-11-05T11:16:51.713Z,79.27
2022-11-05T11:19:25.884Z,79.46
2022-11-05T11:22:18.902Z,79.17
2022-11-05T11:24:48.112Z,78.79
2022-11-05T11:27:17.902Z,78.88
2022-11-05T11:29:49.828Z,78.75
2022-11-05T11:32:20.369Z,78.68
2022-11-05T11:34:51.336Z,78.55
2022-11-05T11:37:23.750Z,78.27
2022-11-05T11:39:54.297Z,78.00
2022-11-05T11:42:27.913Z,77.72
2022-11-05T11:44:56.411Z,77.62
2022-11-05T11:47:26.952Z,77.86
2022-11-05T11:49:54.921Z,77.72
2022-11-05T11:52:28.114Z,77.77
2022-11-05T11:55:17.103Z,77.78
2022-11-05T11:57:45.950Z,77.51
2022-11-05T12:00:13.104Z,77.49
2022-11-05T12:03:05.145Z,77.08
2022-11-05T12:05:39.950Z,76.99
2022-11-05T12:08:22.767Z,77.18
2022-11-05T12:11:01.343Z,77.28
2022-11-05T12:14:09.908Z,77.33
2022-11-05T12:17:00.564Z,77.23
2022-11-05T12:19:54.057Z,77.28
2022-11-05T12:22:31.491Z,76.88
2022-11-05T12:25:22.867Z,76.92
2022-11-05T12:28:10.516Z,76.60
2022-11-05T12:30:53.319Z,77.02
2022-11-05T12:33:27.514Z,76.85
2022-11-05T12:36:09.677Z,76.96
2022-11-05T12:38:58.739Z,76.68
2022-11-05T12:41:31.301Z,76.78
2022-11-05T12:44:16.076Z,76.95
2022-11-05T12:46:52.632Z,76.83
2022-11-05T12:49:35.459Z,76.42
2022-11-05T12:52:21.821Z,76.51
2022-11-05T12:54:59.851Z,76.55
2022-11-05T12:57:30.066Z,76.20
2022-11-05T13:00:04.769Z,76.52
2022-11-05T13:02:37.741Z,76.10
2022-11-05T13:05:06.670Z,75.95
2022-11-05T13:07:48.941Z,76.08
2022-11-05T13:10:25.245Z,75.96
2022-11-05T13:13:05.085Z,76.30
2022-11-05T13:15:36.360Z,75.97
2022-11-05T13:18:09.443Z,76.02
2022-11-05T13:20:39.987Z,75.87
2022-11-05T13:23:16.303Z,75.81
2022-11-05T13:25:50.813Z,75.86
2022-11-05T13:28:28.092Z,76.03
2022-11-05T13:30:58.383Z,75.83
2022-11-05T13:33:31.807Z,75.47
2022-11-05T13:36:25.302Z,75.39
2022-11-05T13:39:01.315Z,75.44
2022-11-05T13:41:53.519Z,75.33
2022-11-05T13:45:04.745Z,75.25
2022-11-05T13:47:50.412Z,75.58
2022-11-05T13:50:30.951Z,75.42
2022-11-05T13:53:17.157Z,75.60
2022-11-05T13:56:12.027Z,75.65
2022-11-05T13:59:03.000Z,75.22
2022-11-05T14:01:45.606Z,75.58
2022-11-05T14:04:21.328Z,75.29
2022-11-05T14:06:48.173Z,75.30
2022-11-05T14:09:19.941Z,75.58
2022-11-05T14:11:52.829Z,75.68
2022-11-05T14:14:23.903Z,75.21
2022-11-05T14:16:53.106Z,75.64
2022-11-05T14:19:50.233Z,75.36
2022-11-05T14:22:37.706Z,75.41
2022-11-05T14:25:37.704Z,75.83
2022-11-05T14:28:28.519Z,75.64
2022-11-05T14:30:55.333Z,75.68
2022-11-05T14:33:37.334Z,75.51
2022-11-05T14:36:33.897Z,75.24
2022-11-05T14:39:13.989Z,75.56
2022-11-05T14:42:00.721Z,75.72
2022-11-05T14:44:29.869Z,75.73
2022-11-05T14:46:59.826Z,75.33
2022-11-05T14:49:30.495Z,75.23
2022-11-05T14:51:59.527Z,75.39
2022-11-05T14:54:33.270Z,75.07
2022-11-05T14:57:02.532Z,75.20
2022-11-05T15:00:01.166Z,74.84
2022-11-05T15:02:34.465Z,74.98
2022-11-05T15:05:37.245Z,75.06
2022-11-05T15:08:27.977Z,75.00
2022-11-05T15:11:02.706Z,74.80
2022-11-05T15:13:33.677Z,74.92
2022-11-05T15:16:03.704Z,74.66
2022-11-05T15:18:35.379Z,74.93
2022-11-05T15:21:04.834Z,74.89
2022-11-05T15:23:38.937Z,74.82
2022-11-05T15:26:10.985Z,74.81
2022-11-05T15:28:40.679Z,74.63
2022-11-05T15:31:24.603Z,74.61
2022-11-05T15:33:51.214Z,74.66
2022-11-05T15:36:24.080Z,74.41
2022-11-05T15:39:15.050Z,74.70
2022-11-05T15:41:38.629Z,74.59
2022-11-05T15:44:05.276Z,74.79
2022-11-05T15:46:33.349Z,74.67
2022-11-05T15:49:04.826Z,74.50
2022-11-05T15:51:31.633Z,74.83
2022-11-05T15:54:29.816Z,74.80
2022-11-05T15:56:50.453Z,74.68
2022-11-05T15:59:19.421Z,74.58
2022-11-05T16:01:50.023Z,74.80
2022-11-05T16:04:19.711Z,74.56
2022-11-05T16:06:49.024Z,74.60
2022-11-05T16:09:27.600Z,74.88
2022-11-05T16:12:13.152Z,74.99
2022-11-05T16:14:40.737Z,74.79
2022-11-05T16:17:20.875Z,74.57
2022-11-05T16:19:52.212Z,74.85
2022-11-05T16:22:19.777Z,74.62
2022-11-05T16:24:53.470Z,74.93
2022-11-05T16:27:22.943Z,74.78
2022-11-05T16:29:52.603Z,74.89
2022-11-05T16:32:29.491Z,74.85
2022-11-05T16:34:59.177Z,74.97
2022-11-05T16:37:27.462Z,75.01
2022-11-05T16:39:55.556Z,75.09
2022-11-05T16:42:40.260Z,75.26
2022-11-05T16:45:10.203Z,75.16
2022-11-05T16:47:38.372Z,75.03
2022-11-05T16:50:14.721Z,75.14
2022-11-05T16:52:41.549Z,75.33
2022-11-05T16:55:09.432Z,75.37
2022-11-05T16:57:36.177Z,75.07
2022-11-05T17:00:04.381Z,75.19
2022-11-05T17:02:31.202Z,75.11
2022-11-05T17:04:59.385Z,75.32
2022-11-05T17:07:25.965Z,75.18
2022-11-05T17:09:52.672Z,75.14
2022-11-05T17:12:19.268Z,75.56
2022-11-05T17:14:45.939Z,75.57
2022-11-05T17:17:12.557Z,75.27
2022-11-05T17:19:43.127Z,75.37
2022-11-05T17:22:11.099Z,75.29
2022-11-05T17:24:39.037Z,75.60
2022-11-05T17:27:05.696Z,75.28
2022-11-05T17:29:32.344Z,75.47
2022-11-05T17:31:59.111Z,75.50
2022-11-05T17:34:25.673Z,75.68
2022-11-05T17:36:52.364Z,75.71
2022-11-05T17:39:20.759Z,75.58
2022-11-05T17:41:47.878Z,75.47
2022-11-05T17:44:14.624Z,75.44
2022-11-05T17:46:41.196Z,75.55
2022-11-05T17:49:07.864Z,75.89
2022-11-05T17:51:34.921Z,75.49
2022-11-05T17:54:01.703Z,75.43
2022-11-05T17:56:34.957Z,75.72
2022-11-05T17:59:03.228Z,75.69
2022-11-05T18:01:34.856Z,75.80
2022-11-05T18:04:08.243Z,75.53
2022-11-05T18:06:35.518Z,75.80
2022-11-05T18:09:03.083Z,75.75
2022-11-05T18:11:31.051Z,75.56
2022-11-05T18:13:57.830Z,75.75
2022-11-05T18:16:24.567Z,75.97
2022-11-05T18:18:51.262Z,75.91
2022-11-05T18:21:18.188Z,76.05
2022-11-05T18:23:45.103Z,76.04
2022-11-05T18:26:13.826Z,75.76
2022-11-05T18:28:42.180Z,75.86
2022-11-05T18:31:16.859Z,75.95
2022-11-05T18:33:44.824Z,76.00
2022-11-05T18:36:17.066Z,76.34
2022-11-05T18:38:43.681Z,75.97
2022-11-05T18:41:10.376Z,76.00
2022-11-05T18:43:36.954Z,76.22
2022-11-05T18:46:06.225Z,76.41
2022-11-05T18:48:33.131Z,76.25
2022-11-05T18:51:02.059Z,76.27
2022-11-05T18:53:28.925Z,76.15
2022-11-05T18:55:55.534Z,76.37
2022-11-05T18:58:22.132Z,76.28
2022-11-05T19:00:48.803Z,76.43
2022-11-05T19:03:16.773Z,76.66
2022-11-05T19:05:43.402Z,76.65
2022-11-05T19:08:10.260Z,76.60
2022-11-05T19:10:39.877Z,76.78
2022-11-05T19:13:06.461Z,76.79
2022-11-05T19:15:33.182Z,76.54
2022-11-05T19:17:59.864Z,76.45
2022-11-05T19:20:28.148Z,76.85
2022-11-05T19:22:54.766Z,76.50
2022-11-05T19:25:21.445Z,76.64
2022-11-05T19:27:48.130Z,76.79
2022-11-05T19:30:14.796Z,76.77
2022-11-05T19:32:41.503Z,76.50
2022-11-05T19:35:08.802Z,76.55
2022-11-05T19:37:36.773Z,76.70
2022-11-05T19:40:03.898Z,76.60
2022-11-05T19:42:30.551Z,76.66
2022-11-05T19:45:06.825Z,76.55
2022-11-05T19:47:43.549Z,76.56
2022-11-05T19:50:10.351Z,76.33
2022-11-05T19:52:38.405Z,76.49
2022-11-05T19:55:11.861Z,76.28
2022-11-05T19:57:39.183Z,76.20
2022-11-05T20:00:06.922Z,76.16
2022-11-05T20:02:33.635Z,76.19
2022-11-05T20:05:00.279Z,76.60
2022-11-05T20:07:27.468Z,76.41
2022-11-05T20:09:55.447Z,76.07
2022-11-05T20:12:22.328Z,76.25
2022-11-05T20:14:48.950Z,76.25
2022-11-05T20:17:20.313Z,76.26
2022-11-05T20:19:46.938Z,76.18
2022-11-05T20:22:14.409Z,76.10
2022-11-05T20:24:41.040Z,75.84
2022-11-05T20:27:09.764Z,76.04
2022-11-05T20:29:36.694Z,76.29
2022-11-05T20:32:03.993Z,76.26
2022-11-05T20:34:32.415Z,76.17
2022-11-05T20:36:59.428Z,75.83
2022-11-05T20:39:26.114Z,76.14
2022-11-05T20:41:53.593Z,76.20
2022-11-05T20:44:21.685Z,75.93
2022-11-05T20:46:49.164Z,76.08
2022-11-05T20:49:17.254Z,76.06
2022-11-05T20:51:45.662Z,76.05
2022-11-05T20:54:12.305Z,76.35
2022-11-05T20:56:38.965Z,76.23
2022-11-05T20:59:05.827Z,76.01
2022-11-05T21:01:34.392Z,76.16
2022-11-05T21:04:01.876Z,76.21
2022-11-05T21:06:28.637Z,76.00
2022-11-05T21:08:55.375Z,76.15
2022-11-05T21:11:22.710Z,76.08
2022-11-05T21:13:49.518Z,76.13
2022-11-05T21:16:20.944Z,76.17
2022-11-05T21:18:49.027Z,76.27
2022-11-05T21:21:17.961Z,76.31
2022-11-05T21:23:44.638Z,76.17
2022-11-05T21:26:13.271Z,76.55
2022-11-05T21:28:44.438Z,76.36
2022-11-05T21:31:11.196Z,76.43
2022-11-05T21:33:38.049Z,76.10
2022-11-05T21:36:12.052Z,76.57
2022-11-05T21:38:41.553Z,76.35
2022-11-05T21:41:11.719Z,76.67
2022-11-05T21:43:39.349Z,76.54
2022-11-05T21:46:06.148Z,76.35
2022-11-05T21:48:33.005Z,76.33
2022-11-05T21:51:18.341Z,76.56
2022-11-05T21:54:04.587Z,76.84
2022-11-05T21:56:50.512Z,76.78
2022-11-05T21:59:38.800Z,76.53
2022-11-05T22:02:06.827Z,76.83
2022-11-05T22:04:35.453Z,76.90
2022-11-05T22:07:02.844Z,76.86
2022-11-05T22:09:32.202Z,76.57
2022-11-05T22:11:59.773Z,76.96
2022-11-05T22:14:27.257Z,76.79
2022-11-05T22:16:54.274Z,76.64
2022-11-05T22:19:21.500Z,76.58
2022-11-05T22:21:48.835Z,76.87
2022-11-05T22:24:16.747Z,76.90
2022-11-05T22:26:45.372Z,76.74
2022-11-05T22:29:12.894Z,76.90
2022-11-05T22:31:39.813Z,76.88
2022-11-05T22:34:07.632Z,76.73
2022-11-05T22:36:34.990Z,77.03
2022-11-05T22:39:02.375Z,76.98
2022-11-05T22:41:29.173Z,77.11
2022-11-05T22:43:57.753Z,77.15
2022-11-05T22:46:26.065Z,76.67
2022-11-05T22:48:53.309Z,77.23
2022-11-05T22:51:22.114Z,77.35
2022-11-05T22:53:49.045Z,77.16
2022-11-05T22:56:18.610Z,77.15
2022-11-05T22:58:45.451Z,76.88
2022-11-05T23:01:16.061Z,77.02
2022-11-05T23:03:44.701Z,77.03
2022-11-05T23:06:34.731Z,77.26
2022-11-05T23:09:22.801Z,77.18
2022-11-05T23:11:52.829Z,77.34
2022-11-05T23:14:22.488Z,77.55
2022-11-05T23:17:09.426Z,77.42
2022-11-05T23:19:54.589Z,77.37
2022-11-05T23:22:42.951Z,77.50
2022-11-05T23:25:11.852Z,77.27
2022-11-05T23:27:39.495Z,77.46
2022-11-05T23:30:09.776Z,77.63
2022-11-05T23:32:37.770Z,77.35
2022-11-05T23:35:05.500Z,77.36
2022-11-05T23:37:51.228Z,77.58
2022-11-05T23:40:21.781Z,77.75
2022-11-05T23:43:07.460Z,77.48
2022-11-05T23:45:49.500Z,77.41
2022-11-05T23:48:22.407Z,77.58
2022-11-05T23:50:53.243Z,77.57
2022-11-05T23:53:20.944Z,77.53
2022-11-05T23:55:48.080Z,77.72
2022-11-05T23:58:15.321Z,77.72
